createdAt,value
2019-01-18T00:00:05.435Z,100.00
2019-01-18T00:02:34.087Z,100.00
2019-01-18T00:05:02.886Z,99.48
2019-01-18T00:07:31.277Z,100.00
2019-01-18T00:09:59.673Z,100.00
2019-01-18T00:12:28.059Z,100.00
2019-01-18T00:14:56.465Z,100.00
2019-01-18T00:17:25.107Z,100.00
2019-01-18T00:19:53.512Z,100.00
2019-01-18T00:22:22.187Z,100.00
2019-01-18T00:24:50.587Z,100.00
2019-01-18T00:27:18.971Z,98.92
2019-01-18T00:29:47.377Z,100.00
2019-01-18T00:32:16.110Z,100.00
2019-01-18T00:34:44.504Z,100.00
2019-01-18T00:37:13.162Z,98.77
2019-01-18T00:39:41.560Z,100.00
2019-01-18T00:42:10.012Z,99.19
2019-01-18T00:44:38.404Z,99.73
2019-01-18T00:47:06.785Z,100.00
2019-01-18T00:49:54.525Z,100.00
2019-01-18T00:52:22.914Z,100.00
2019-01-18T00:55:10.972Z,100.00
2019-01-18T00:57:39.482Z,100.00
2019-01-18T01:00:28.596Z,100.00
2019-01-18T01:03:37.149Z,100.00
2019-01-18T01:06:05.538Z,100.00
2019-01-18T01:08:33.937Z,100.00
2019-01-18T01:11:02.325Z,100.00
2019-01-18T01:13:31.023Z,100.00
2019-01-18T01:15:59.409Z,100.00
2019-01-18T01:18:27.806Z,100.00
2019-01-18T01:20:56.261Z,100.00
2019-01-18T01:23:24.657Z,100.00
2019-01-18T01:25:53.041Z,100.00
2019-01-18T01:28:21.440Z,100.00
2019-01-18T01:30:49.899Z,100.00
2019-01-18T01:33:18.296Z,100.00
2019-01-18T01:35:46.943Z,100.00
2019-01-18T01:38:15.630Z,100.00
2019-01-18T01:40:44.019Z,100.00
2019-01-18T01:43:12.415Z,100.00
2019-01-18T01:45:40.803Z,99.63
2019-01-18T01:48:09.270Z,99.17
2019-01-18T01:50:37.723Z,99.89
2019-01-18T01:53:06.517Z,97.20
2019-01-18T01:55:35.197Z,96.37
2019-01-18T02:00:39.049Z,96.63
2019-01-18T02:03:07.513Z,97.65
2019-01-18T02:05:36.200Z,95.26
2019-01-18T02:08:04.727Z,97.06
2019-01-18T02:10:33.112Z,98.30
2019-01-18T02:13:01.506Z,95.75
2019-01-18T02:15:29.888Z,96.98
2019-01-18T02:17:58.280Z,97.76
2019-01-18T02:20:26.660Z,97.63
2019-01-18T02:22:55.123Z,96.58
2019-01-18T02:25:23.581Z,96.90
2019-01-18T02:27:52.044Z,97.76
2019-01-18T02:31:00.335Z,96.79
2019-01-18T02:33:29.010Z,95.24
2019-01-18T02:35:57.392Z,97.31
2019-01-18T02:38:25.792Z,98.18
2019-01-18T02:41:13.812Z,95.76
2019-01-18T02:43:42.208Z,96.58
2019-01-18T02:46:10.587Z,94.89
2019-01-18T02:48:39.267Z,94.27
2019-01-18T02:51:07.938Z,93.53
2019-01-18T02:53:36.345Z,95.39
2019-01-18T02:56:44.893Z,93.11
2019-01-18T02:59:13.270Z,94.17
2019-01-18T03:01:41.671Z,92.64
2019-01-18T03:04:10.056Z,94.49
2019-01-18T03:06:38.508Z,91.54
2019-01-18T03:09:09.403Z,90.24
2019-01-18T03:11:38.129Z,91.11
2019-01-18T03:14:06.519Z,93.48
2019-01-18T03:16:35.196Z,94.20
2019-01-18T03:19:03.571Z,95.93
2019-01-18T03:21:31.968Z,98.89
2019-01-18T03:24:00.346Z,100.00
2019-01-18T03:26:28.752Z,100.00
2019-01-18T03:28:57.165Z,100.00
2019-01-18T03:31:25.545Z,100.00
2019-01-18T03:33:53.930Z,100.00
2019-01-18T03:36:22.635Z,100.00
2019-01-18T03:38:51.319Z,100.00
2019-01-18T03:41:19.728Z,100.00
2019-01-18T03:43:48.122Z,100.00
2019-01-18T03:46:16.523Z,100.00
2019-01-18T03:48:44.913Z,100.00
2019-01-18T03:51:13.310Z,100.00
2019-01-18T03:53:41.700Z,100.00
2019-01-18T03:56:10.101Z,100.00
2019-01-18T03:58:38.538Z,100.00
2019-01-18T04:01:06.941Z,100.00
2019-01-18T04:03:35.334Z,100.00
2019-01-18T04:06:03.811Z,100.00
2019-01-18T04:08:32.194Z,100.00
2019-01-18T04:11:01.252Z,100.00
2019-01-18T04:13:29.654Z,100.00
2019-01-18T04:15:58.331Z,100.00
2019-01-18T04:18:26.736Z,100.00
2019-01-18T04:20:55.131Z,100.00
2019-01-18T04:23:23.777Z,100.00
2019-01-18T04:25:52.182Z,100.00
2019-01-18T04:28:20.861Z,100.00
2019-01-18T04:30:49.261Z,100.00
2019-01-18T04:33:17.642Z,100.00
2019-01-18T04:35:46.048Z,100.00
2019-01-18T04:38:14.433Z,100.00
2019-01-18T04:40:43.146Z,100.00
2019-01-18T04:43:11.549Z,100.00
2019-01-18T04:45:39.941Z,100.00
2019-01-18T04:48:08.695Z,100.00
2019-01-18T04:50:37.340Z,100.00
2019-01-18T04:53:06.067Z,100.00
2019-01-18T04:55:34.459Z,99.68
2019-01-18T04:58:03.129Z,100.00
2019-01-18T05:00:32.021Z,99.95
2019-01-18T05:03:00.370Z,98.68
2019-01-18T05:05:28.834Z,99.24
2019-01-18T05:07:57.221Z,100.00
2019-01-18T05:10:27.565Z,99.98
2019-01-18T05:12:56.271Z,100.00
2019-01-18T05:15:27.356Z,99.90
2019-01-18T05:17:55.754Z,100.00
2019-01-18T05:20:24.154Z,100.00
2019-01-18T05:22:52.537Z,99.66
2019-01-18T05:25:21.232Z,100.00
2019-01-18T05:27:49.919Z,100.00
2019-01-18T05:30:21.052Z,99.90
2019-01-18T05:32:50.068Z,100.00
2019-01-18T05:35:18.840Z,100.00
2019-01-18T05:37:47.299Z,100.00
2019-01-18T05:40:20.759Z,100.00
2019-01-18T05:42:49.484Z,100.00
2019-01-18T05:45:19.728Z,100.00
2019-01-18T05:47:48.116Z,100.00
2019-01-18T05:50:19.397Z,100.00
2019-01-18T05:52:47.791Z,100.00
2019-01-18T05:55:16.257Z,100.00
2019-01-18T05:57:44.713Z,100.00
2019-01-18T06:00:17.807Z,100.00
2019-01-18T06:02:46.207Z,100.00
2019-01-18T06:05:17.519Z,100.00
2019-01-18T06:07:45.973Z,100.00
2019-01-18T06:10:14.391Z,100.00
2019-01-18T06:12:42.782Z,100.00
2019-01-18T06:15:11.543Z,100.00
2019-01-18T06:17:39.935Z,100.00
2019-01-18T06:20:14.058Z,100.00
2019-01-18T06:22:42.458Z,100.00
2019-01-18T06:25:11.030Z,100.00
2019-01-18T06:27:39.680Z,100.00
2019-01-18T06:30:11.134Z,100.00
2019-01-18T06:32:39.533Z,100.00
2019-01-18T06:35:08.511Z,100.00
2019-01-18T06:37:36.903Z,100.00
2019-01-18T06:40:08.365Z,100.00
2019-01-18T06:42:36.757Z,100.00
2019-01-18T06:45:08.778Z,100.00
2019-01-18T06:47:37.181Z,100.00
2019-01-18T06:50:11.146Z,100.00
2019-01-18T06:52:39.557Z,100.00
2019-01-18T06:55:10.302Z,100.00
2019-01-18T06:57:38.754Z,100.00
2019-01-18T07:00:25.313Z,100.00
2019-01-18T07:02:53.709Z,100.00
2019-01-18T07:05:22.116Z,100.00
2019-01-18T07:07:50.808Z,100.00
2019-01-18T07:10:21.806Z,100.00
2019-01-18T07:12:50.370Z,100.00
2019-01-18T07:15:18.890Z,100.00
2019-01-18T07:17:47.361Z,100.00
2019-01-18T07:20:17.694Z,100.00
2019-01-18T07:22:46.540Z,100.00
2019-01-18T07:25:26.614Z,100.00
2019-01-18T07:27:55.356Z,100.00
2019-01-18T07:30:32.047Z,100.00
2019-01-18T07:33:00.465Z,100.00
2019-01-18T07:35:28.920Z,100.00
2019-01-18T07:37:57.310Z,100.00
2019-01-18T07:40:26.211Z,100.00
2019-01-18T07:42:55.056Z,100.00
2019-01-18T07:45:25.996Z,100.00
2019-01-18T07:47:54.554Z,100.00
2019-01-18T07:50:22.939Z,100.00
2019-01-18T07:52:51.421Z,100.00
2019-01-18T07:55:20.523Z,100.00
2019-01-18T07:57:49.026Z,100.00
2019-01-18T08:00:20.100Z,100.00
2019-01-18T08:02:48.511Z,100.00
2019-01-18T08:05:17.243Z,100.00
2019-01-18T08:07:45.778Z,100.00
2019-01-18T08:10:16.761Z,100.00
2019-01-18T08:12:45.151Z,100.00
2019-01-18T08:15:19.212Z,100.00
2019-01-18T08:17:47.607Z,100.00
2019-01-18T08:20:18.937Z,100.00
2019-01-18T08:22:47.481Z,100.00
2019-01-18T08:25:16.311Z,100.00
2019-01-18T08:27:44.784Z,100.00
2019-01-18T08:30:24.788Z,100.00
2019-01-18T08:32:53.201Z,100.00
2019-01-18T08:35:23.073Z,100.00
2019-01-18T08:37:51.533Z,100.00
2019-01-18T08:40:22.865Z,100.00
2019-01-18T08:42:51.326Z,100.00
2019-01-18T08:45:26.014Z,100.00
2019-01-18T08:47:54.473Z,100.00
2019-01-18T08:50:23.015Z,100.00
2019-01-18T08:52:51.469Z,100.00
2019-01-18T08:55:19.947Z,100.00
2019-01-18T08:57:48.349Z,100.00
2019-01-18T09:00:19.632Z,100.00
2019-01-18T09:02:48.029Z,100.00
2019-01-18T09:05:19.363Z,100.00
2019-01-18T09:07:47.840Z,100.00
2019-01-18T09:10:18.674Z,100.00
2019-01-18T09:12:47.087Z,100.00
2019-01-18T09:15:15.620Z,100.00
2019-01-18T09:17:44.008Z,100.00
2019-01-18T09:20:17.841Z,100.00
2019-01-18T09:22:46.302Z,100.00
2019-01-18T09:25:14.995Z,100.00
2019-01-18T09:27:43.451Z,100.00
2019-01-18T09:30:17.678Z,100.00
2019-01-18T09:32:46.213Z,100.00
2019-01-18T09:35:16.951Z,100.00
2019-01-18T09:37:45.489Z,100.00
2019-01-18T09:40:17.144Z,100.00
2019-01-18T09:42:45.548Z,100.00
2019-01-18T09:45:14.733Z,100.00
2019-01-18T09:47:43.316Z,100.00
2019-01-18T09:50:14.786Z,100.00
2019-01-18T09:52:43.253Z,100.00
2019-01-18T09:55:11.924Z,100.00
2019-01-18T09:57:40.318Z,100.00
2019-01-18T10:00:17.848Z,100.00
2019-01-18T10:02:46.243Z,100.00
2019-01-18T10:05:14.701Z,100.00
2019-01-18T10:07:43.110Z,100.00
2019-01-18T10:10:15.098Z,100.00
2019-01-18T10:12:43.674Z,100.00
2019-01-18T10:15:17.931Z,100.00
2019-01-18T10:17:46.269Z,100.00
2019-01-18T10:20:17.211Z,100.00
2019-01-18T10:22:47.041Z,100.00
2019-01-18T10:25:16.988Z,100.00
2019-01-18T10:27:45.651Z,100.00
2019-01-18T10:30:17.207Z,100.00
2019-01-18T10:32:45.666Z,100.00
2019-01-18T10:35:14.338Z,98.23
2019-01-18T10:37:42.814Z,100.00
2019-01-18T10:40:15.831Z,100.00
2019-01-18T10:42:44.982Z,100.00
2019-01-18T10:45:15.107Z,100.00
2019-01-18T10:47:43.934Z,99.59
2019-01-18T10:50:21.080Z,98.58
2019-01-18T10:52:49.907Z,100.00
2019-01-18T10:55:18.331Z,98.88
2019-01-18T10:57:46.821Z,94.87
2019-01-18T11:00:23.319Z,96.27
2019-01-18T11:02:52.567Z,98.96
2019-01-18T11:05:22.195Z,90.47
2019-01-18T11:07:50.842Z,93.54
2019-01-18T11:10:19.303Z,93.76
2019-01-18T11:12:47.767Z,94.05
2019-01-18T11:15:22.313Z,95.67
2019-01-18T11:17:50.715Z,94.30
2019-01-18T11:20:22.179Z,94.00
2019-01-18T11:22:51.854Z,95.87
2019-01-18T11:25:20.257Z,88.12
2019-01-18T11:27:48.651Z,86.43
2019-01-18T11:30:17.490Z,83.97
2019-01-18T11:32:45.891Z,88.01
2019-01-18T11:35:15.333Z,88.11
2019-01-18T11:37:43.813Z,89.17
2019-01-18T11:40:15.595Z,91.25
2019-01-18T11:42:44.123Z,88.63
2019-01-18T11:45:13.538Z,88.31
2019-01-18T11:47:41.924Z,90.29
2019-01-18T11:50:18.582Z,88.66
2019-01-18T11:52:46.915Z,92.58
2019-01-18T11:55:15.305Z,94.68
2019-01-18T11:57:44.109Z,89.18
2019-01-18T12:00:18.247Z,90.19
2019-01-18T12:02:46.741Z,95.00
2019-01-18T12:05:15.259Z,95.33
2019-01-18T12:07:43.717Z,89.73
2019-01-18T12:10:18.043Z,90.34
2019-01-18T12:12:46.503Z,87.34
2019-01-18T12:15:15.340Z,92.81
2019-01-18T12:17:43.811Z,88.67
2019-01-18T12:20:18.195Z,85.73
2019-01-18T12:22:46.758Z,85.48
2019-01-18T12:25:15.294Z,91.46
2019-01-18T12:27:43.838Z,89.65
2019-01-18T12:30:20.969Z,80.99
2019-01-18T12:32:49.385Z,86.30
2019-01-18T12:35:17.781Z,79.09
2019-01-18T12:37:46.527Z,84.45
2019-01-18T12:40:15.309Z,84.11
2019-01-18T12:42:43.994Z,85.09
2019-01-18T12:45:15.040Z,82.50
2019-01-18T12:47:43.429Z,81.95
2019-01-18T12:50:17.860Z,78.90
2019-01-18T12:52:46.249Z,78.10
2019-01-18T12:55:15.005Z,77.58
2019-01-18T12:57:43.692Z,82.21
2019-01-18T13:00:29.062Z,83.38
2019-01-18T13:02:57.906Z,87.12
2019-01-18T13:05:38.622Z,90.56
2019-01-18T13:08:07.303Z,91.23
2019-01-18T13:10:36.010Z,92.69
2019-01-18T13:13:04.636Z,92.13
2019-01-18T13:15:39.125Z,95.16
2019-01-18T13:18:07.785Z,92.38
2019-01-18T13:20:36.187Z,89.80
2019-01-18T13:23:04.579Z,92.01
2019-01-18T13:25:32.984Z,93.65
2019-01-18T13:28:01.375Z,93.72
2019-01-18T13:30:29.767Z,90.01
2019-01-18T13:32:58.570Z,93.76
2019-01-18T13:35:27.701Z,97.59
2019-01-18T13:37:56.352Z,98.91
2019-01-18T13:40:24.809Z,97.18
2019-01-18T13:42:53.516Z,99.32
2019-01-18T13:45:24.449Z,95.42
2019-01-18T13:47:52.512Z,96.72
2019-01-18T13:50:21.403Z,96.98
2019-01-18T13:52:50.011Z,96.44
2019-01-18T13:55:30.079Z,95.16
2019-01-18T13:57:58.464Z,99.46
2019-01-18T14:00:26.860Z,93.56
2019-01-18T14:02:55.257Z,95.36
2019-01-18T14:05:23.644Z,95.42
2019-01-18T14:07:53.538Z,95.80
2019-01-18T14:10:24.808Z,95.00
2019-01-18T14:12:53.534Z,94.28
2019-01-18T14:15:23.713Z,91.25
2019-01-18T14:17:52.104Z,95.10
2019-01-18T14:20:22.793Z,94.85
2019-01-18T14:22:52.462Z,95.46
2019-01-18T14:25:20.916Z,98.52
2019-01-18T14:27:49.563Z,96.32
2019-01-18T14:30:28.578Z,100.00
2019-01-18T14:32:56.986Z,97.76
2019-01-18T14:35:26.846Z,99.88
2019-01-18T14:37:55.258Z,100.00
2019-01-18T14:40:23.724Z,100.00
2019-01-18T14:42:53.754Z,100.00
2019-01-18T14:45:27.883Z,100.00
2019-01-18T14:47:56.278Z,100.00
2019-01-18T14:50:25.004Z,98.62
2019-01-18T14:52:53.464Z,100.00
2019-01-18T14:55:21.932Z,100.00
2019-01-18T14:57:50.403Z,100.00
2019-01-18T15:00:24.560Z,100.00
2019-01-18T15:02:53.348Z,100.00
2019-01-18T15:05:21.742Z,100.00
2019-01-18T15:07:50.149Z,100.00
2019-01-18T15:10:20.887Z,100.00
2019-01-18T15:12:51.769Z,100.00
2019-01-18T15:15:20.771Z,100.00
2019-01-18T15:17:50.704Z,100.00
2019-01-18T15:20:21.852Z,100.00
2019-01-18T15:22:50.309Z,100.00
2019-01-18T15:25:19.060Z,100.00
2019-01-18T15:27:47.597Z,100.00
2019-01-18T15:30:24.848Z,100.00
2019-01-18T15:32:53.382Z,100.00
2019-01-18T15:35:27.874Z,100.00
2019-01-18T15:37:56.347Z,100.00
2019-01-18T15:40:27.618Z,100.00
2019-01-18T15:42:57.966Z,100.00
2019-01-18T15:45:26.613Z,100.00
2019-01-18T15:47:55.092Z,100.00
2019-01-18T15:50:25.938Z,100.00
2019-01-18T15:52:54.474Z,100.00
2019-01-18T15:55:23.518Z,100.00
2019-01-18T15:57:52.047Z,100.00
2019-01-18T16:00:23.512Z,100.00
2019-01-18T16:02:52.241Z,100.00
2019-01-18T16:05:20.641Z,100.00
2019-01-18T16:07:49.038Z,100.00
2019-01-18T16:10:17.810Z,100.00
2019-01-18T16:12:46.218Z,100.00
2019-01-18T16:15:20.360Z,100.00
2019-01-18T16:17:49.968Z,100.00
2019-01-18T16:20:20.802Z,100.00
2019-01-18T16:22:50.214Z,100.00
2019-01-18T16:25:27.222Z,100.00
2019-01-18T16:27:55.755Z,100.00
2019-01-18T16:30:25.701Z,100.00
2019-01-18T16:32:56.375Z,100.00
2019-01-18T16:35:24.842Z,100.00
2019-01-18T16:37:53.482Z,100.00
2019-01-18T16:40:35.388Z,100.00
2019-01-18T16:43:28.093Z,100.00
2019-01-18T16:45:56.657Z,100.00
2019-01-18T16:48:25.061Z,100.00
2019-01-18T16:50:53.455Z,100.00
2019-01-18T16:53:21.841Z,100.00
2019-01-18T16:55:50.249Z,100.00
2019-01-18T16:58:18.639Z,100.00
2019-01-18T17:00:56.153Z,100.00
2019-01-18T17:03:30.323Z,100.00
2019-01-18T17:05:54.683Z,100.00
2019-01-18T17:08:23.078Z,100.00
2019-01-18T17:10:51.706Z,100.00
2019-01-18T17:13:20.647Z,100.00
2019-01-18T17:15:49.042Z,100.00
2019-01-18T17:18:17.444Z,100.00
2019-01-18T17:20:47.374Z,100.00
2019-01-18T17:23:15.768Z,100.00
2019-01-18T17:25:44.179Z,100.00
2019-01-18T17:28:12.566Z,100.00
2019-01-18T17:30:41.268Z,100.00
2019-01-18T17:33:09.661Z,100.00
2019-01-18T17:35:43.759Z,100.00
2019-01-18T17:38:23.814Z,100.00
2019-01-18T17:40:55.271Z,100.00
2019-01-18T17:43:32.313Z,100.00
2019-01-18T17:46:18.871Z,100.00
2019-01-18T17:48:56.148Z,100.00
2019-01-18T17:51:36.989Z,100.00
2019-01-18T17:54:08.441Z,100.00
2019-01-18T17:56:39.894Z,100.00
2019-01-18T17:59:23.332Z,100.00
2019-01-18T18:02:14.858Z,100.00
2019-01-18T18:05:01.875Z,100.00
2019-01-18T18:07:36.318Z,100.00
2019-01-18T18:10:33.546Z,100.00
2019-01-18T18:13:16.685Z,100.00
2019-01-18T18:15:59.812Z,100.00
2019-01-18T18:18:31.272Z,100.00
2019-01-18T18:21:20.597Z,100.00
2019-01-18T18:24:04.088Z,100.00
2019-01-18T18:26:47.144Z,100.00
2019-01-18T18:29:42.601Z,100.00
2019-01-18T18:32:41.303Z,100.00
2019-01-18T18:35:28.002Z,100.00
2019-01-18T18:38:07.709Z,100.00
2019-01-18T18:40:50.997Z,100.00
2019-01-18T18:43:40.283Z,100.00
2019-01-18T18:46:11.738Z,100.00
2019-01-18T18:48:51.939Z,100.00
2019-01-18T18:51:25.991Z,100.00
2019-01-18T18:54:26.369Z,100.00
2019-01-18T18:57:12.891Z,100.00
2019-01-18T19:00:05.832Z,100.00
2019-01-18T19:02:49.170Z,100.00
2019-01-18T19:05:32.422Z,100.00
2019-01-18T19:08:12.426Z,100.00
2019-01-18T19:10:55.732Z,100.00
2019-01-18T19:14:00.641Z,100.00
2019-01-18T19:16:34.931Z,100.00
2019-01-18T19:19:06.679Z,100.00
2019-01-18T19:21:53.595Z,100.00
2019-01-18T19:24:36.978Z,100.00
2019-01-18T19:27:08.423Z,100.00
2019-01-18T19:29:55.133Z,100.00
2019-01-18T19:32:51.415Z,100.00
2019-01-18T19:35:40.831Z,100.00
2019-01-18T19:38:29.297Z,100.00
2019-01-18T19:41:21.701Z,100.00
2019-01-18T19:43:56.159Z,100.00
2019-01-18T19:46:52.524Z,100.00
2019-01-18T19:49:33.315Z,100.00
2019-01-18T19:52:26.557Z,100.00
2019-01-18T19:55:29.856Z,100.00
2019-01-18T19:58:08.268Z,100.00
2019-01-18T20:01:00.617Z,100.00
2019-01-18T20:03:44.356Z,100.00
2019-01-18T20:06:30.627Z,100.00
2019-01-18T20:09:13.995Z,100.00
2019-01-18T20:11:48.364Z,100.00
2019-01-18T20:14:34.872Z,100.00
2019-01-18T20:17:06.334Z,100.00
2019-01-18T20:19:57.436Z,100.00
2019-01-18T20:22:28.897Z,100.00
2019-01-18T20:25:03.065Z,100.00
2019-01-18T20:27:55.657Z,100.00
2019-01-18T20:30:29.783Z,100.00
2019-01-18T20:33:01.238Z,100.00
2019-01-18T20:35:38.851Z,100.00
2019-01-18T20:38:13.404Z,100.00
2019-01-18T20:41:04.370Z,100.00
2019-01-18T20:43:36.132Z,100.00
2019-01-18T20:46:25.753Z,100.00
2019-01-18T20:49:05.827Z,100.00
2019-01-18T20:51:43.012Z,100.00
2019-01-18T20:54:20.621Z,100.00
2019-01-18T20:56:55.267Z,100.00
2019-01-18T20:59:35.093Z,100.00
2019-01-18T21:02:15.640Z,100.00
2019-01-18T21:04:49.910Z,100.00
2019-01-18T21:07:33.124Z,100.00
2019-01-18T21:10:22.725Z,100.00
2019-01-18T21:13:14.020Z,100.00
2019-01-18T21:16:00.016Z,100.00
2019-01-18T21:18:36.783Z,100.00
2019-01-18T21:21:23.590Z,100.00
2019-01-18T21:23:58.145Z,100.00
2019-01-18T21:26:38.334Z,100.00
2019-01-18T21:29:15.716Z,100.00
2019-01-18T21:32:11.587Z,100.00
2019-01-18T21:34:51.817Z,100.00
2019-01-18T21:37:45.927Z,100.00
2019-01-18T21:40:28.702Z,100.00
2019-01-18T21:43:08.976Z,100.00
2019-01-18T21:45:43.523Z,100.00
2019-01-18T21:48:21.043Z,100.00
2019-01-18T21:51:21.653Z,100.00
2019-01-18T21:54:02.210Z,100.00
2019-01-18T21:56:42.923Z,100.00
2019-01-18T21:59:14.384Z,100.00
2019-01-18T22:02:00.933Z,100.00
2019-01-18T22:04:40.521Z,100.00
2019-01-18T22:07:33.379Z,100.00
2019-01-18T22:10:13.971Z,100.00
2019-01-18T22:12:54.096Z,100.00
2019-01-18T22:15:55.530Z,100.00
2019-01-18T22:18:27.328Z,100.00
2019-01-18T22:21:16.581Z,100.00
2019-01-18T22:23:57.028Z,100.00
2019-01-18T22:26:40.512Z,100.00
2019-01-18T22:29:31.755Z,100.00
2019-01-18T22:32:18.649Z,100.00
2019-01-18T22:35:05.282Z,100.00
2019-01-18T22:37:39.316Z,100.00
2019-01-18T22:40:44.307Z,100.00
2019-01-18T22:43:25.079Z,100.00
2019-01-18T22:46:02.018Z,100.00
2019-01-18T22:48:39.766Z,100.00
2019-01-18T22:51:11.217Z,100.00
2019-01-18T22:53:51.629Z,100.00
2019-01-18T22:56:40.627Z,100.00
2019-01-18T22:59:42.619Z,100.00
2019-01-18T23:02:25.826Z,100.00
2019-01-18T23:05:00.240Z,100.00
2019-01-18T23:07:40.707Z,100.00
2019-01-18T23:10:20.760Z,100.00
2019-01-18T23:13:07.466Z,100.00
2019-01-18T23:16:04.831Z,100.00
2019-01-18T23:18:39.001Z,100.00
2019-01-18T23:21:19.299Z,100.00
2019-01-18T23:23:53.484Z,100.00
2019-01-18T23:26:41.961Z,100.00
2019-01-18T23:29:31.280Z,100.00
2019-01-18T23:32:25.824Z,100.00
2019-01-18T23:35:02.853Z,100.00
2019-01-18T23:37:36.489Z,100.00
2019-01-18T23:40:27.410Z,100.00
2019-01-18T23:43:07.758Z,100.00
2019-01-18T23:45:42.189Z,100.00
2019-01-18T23:48:25.658Z,100.00
2019-01-18T23:51:02.859Z,100.00
2019-01-18T23:53:34.321Z,100.00
2019-01-18T23:56:17.881Z,100.00
2019-01-18T23:58:49.352Z,100.00
